XNO35P SBGR-SUMU
Flight info
| Callsign | XNO35P |
|---|---|
| Flight time | 2h 16m |
| Altitude | 36000 |
| Route | UBSOD UZ38 UMDEX DCT CXS DCT NIGRO UM792 CRR |
| Aircraft | A346/H-SDE2E3FGHIJ3J4J5M1RWXY/LB1D1 |
Departure
| Time | 2026-05-04 01:51 |
|---|---|
| Airport | São Paulo/Guarulhos–Governor André Franco Montoro International Airport (SBGR) |
Arrival
| Time | 2026-05-04 04:08 |
|---|---|
| Airport | Carrasco General Cesáreo L. Berisso International Airport (SUMU) |
| Time | Latitude | Longitude | Altitude | Speed | Heading |
|---|---|---|---|---|---|
| 2026-05-04 01:18 | -23.42614 | -46.47500 | 2481 ft | 0 kts | 75° |
| 2026-05-04 01:41 | -23.42614 | -46.47503 | 2480 ft | 3 kts | 72° |
| 2026-05-04 01:41 | -23.42616 | -46.47516 | 2483 ft | 4 kts | 84° |
| 2026-05-04 01:42 | -23.42615 | -46.47541 | 2481 ft | 4 kts | 111° |
| 2026-05-04 01:42 | -23.42605 | -46.47557 | 2483 ft | 4 kts | 148° |
| 2026-05-04 01:42 | -23.42582 | -46.47566 | 2483 ft | 4 kts | 168° |
| 2026-05-04 01:42 | -23.42562 | -46.47571 | 2483 ft | 1 kts | 164° |
| 2026-05-04 01:43 | -23.42558 | -46.47572 | 2483 ft | 0 kts | 164° |
| 2026-05-04 01:44 | -23.42559 | -46.47572 | 2483 ft | 0 kts | 164° |
| 2026-05-04 01:45 | -23.42561 | -46.47571 | 2483 ft | 1 kts | 164° |
| 2026-05-04 01:45 | -23.42620 | -46.47555 | 2481 ft | 11 kts | 169° |
| 2026-05-04 01:46 | -23.42709 | -46.47543 | 2484 ft | 14 kts | 169° |
| 2026-05-04 01:46 | -23.42806 | -46.47515 | 2483 ft | 15 kts | 162° |
| 2026-05-04 01:46 | -23.42909 | -46.47489 | 2484 ft | 14 kts | 198° |
| 2026-05-04 01:46 | -23.42967 | -46.47576 | 2482 ft | 15 kts | 255° |
| 2026-05-04 01:47 | -23.42997 | -46.47693 | 2485 ft | 17 kts | 253° |
| 2026-05-04 01:47 | -23.43033 | -46.47825 | 2483 ft | 19 kts | 253° |
| 2026-05-04 01:47 | -23.43072 | -46.47967 | 2485 ft | 21 kts | 253° |
| 2026-05-04 01:47 | -23.43114 | -46.48123 | 2482 ft | 22 kts | 253° |
| 2026-05-04 01:48 | -23.43158 | -46.48289 | 2483 ft | 23 kts | 254° |
| 2026-05-04 01:48 | -23.43213 | -46.48379 | 2483 ft | 12 kts | 193° |
| 2026-05-04 01:48 | -23.43271 | -46.48373 | 2483 ft | 0 kts | 166° |
| 2026-05-04 01:49 | -23.43273 | -46.48373 | 2483 ft | 2 kts | 166° |
| 2026-05-04 01:49 | -23.43308 | -46.48363 | 2483 ft | 9 kts | 164° |
| 2026-05-04 01:50 | -23.43385 | -46.48334 | 2483 ft | 13 kts | 146° |
| 2026-05-04 01:50 | -23.43406 | -46.48253 | 2482 ft | 12 kts | 79° |
| 2026-05-04 01:50 | -23.43397 | -46.48220 | 2484 ft | 7 kts | 73° |
| 2026-05-04 01:50 | -23.43323 | -46.47947 | 2482 ft | 69 kts | 73° |
| 2026-05-04 01:51 | -23.43132 | -46.47240 | 2483 ft | 124 kts | 73° |
| 2026-05-04 01:51 | -23.42842 | -46.46170 | 2481 ft | 169 kts | 74° |
| 2026-05-04 01:51 | -23.42469 | -46.44847 | 2724 ft | 189 kts | 71° |
| 2026-05-04 01:51 | -23.42041 | -46.43483 | 3390 ft | 191 kts | 69° |
| 2026-05-04 01:52 | -23.41549 | -46.42133 | 4022 ft | 192 kts | 68° |
| 2026-05-04 01:52 | -23.41030 | -46.40761 | 4473 ft | 203 kts | 69° |
| 2026-05-04 01:52 | -23.40566 | -46.39237 | 4830 ft | 220 kts | 77° |
| 2026-05-04 01:52 | -23.40170 | -46.37555 | 5233 ft | 238 kts | 78° |
| 2026-05-04 01:53 | -23.39892 | -46.35717 | 5573 ft | 256 kts | 89° |
| 2026-05-04 01:53 | -23.40282 | -46.33791 | 6093 ft | 267 kts | 112° |
| 2026-05-04 01:53 | -23.41094 | -46.31956 | 6883 ft | 270 kts | 115° |
| 2026-05-04 01:53 | -23.41893 | -46.30089 | 7604 ft | 274 kts | 112° |
| 2026-05-04 01:54 | -23.42629 | -46.28137 | 8235 ft | 283 kts | 110° |
| 2026-05-04 01:54 | -23.43420 | -46.26132 | 8862 ft | 292 kts | 121° |
| 2026-05-04 01:54 | -23.44833 | -46.24546 | 9574 ft | 297 kts | 153° |
| 2026-05-04 01:54 | -23.46822 | -46.23977 | 10308 ft | 297 kts | 185° |
| 2026-05-04 01:55 | -23.48828 | -46.24512 | 10930 ft | 301 kts | 204° |
| 2026-05-04 01:55 | -23.50823 | -46.25379 | 11368 ft | 317 kts | 202° |
| 2026-05-04 01:55 | -23.52960 | -46.26249 | 11721 ft | 335 kts | 208° |
| 2026-05-04 01:55 | -23.54902 | -46.27728 | 12039 ft | 350 kts | 226° |
| 2026-05-04 01:56 | -23.56328 | -46.29933 | 12327 ft | 364 kts | 246° |
| 2026-05-04 01:56 | -23.57029 | -46.32633 | 12702 ft | 377 kts | 259° |
| 2026-05-04 01:56 | -23.57546 | -46.35455 | 13433 ft | 380 kts | 259° |
| 2026-05-04 01:56 | -23.58080 | -46.38308 | 14208 ft | 383 kts | 258° |
| 2026-05-04 01:57 | -23.58629 | -46.41159 | 14858 ft | 385 kts | 258° |
| 2026-05-04 01:57 | -23.59195 | -46.44050 | 15532 ft | 388 kts | 258° |
| 2026-05-04 01:57 | -23.59764 | -46.46930 | 16030 ft | 389 kts | 258° |
| 2026-05-04 01:57 | -23.60336 | -46.49822 | 16262 ft | 388 kts | 258° |
| 2026-05-04 01:58 | -23.60849 | -46.52622 | 16269 ft | 388 kts | 261° |
| 2026-05-04 01:58 | -23.61306 | -46.55652 | 16486 ft | 397 kts | 261° |
| 2026-05-04 01:58 | -23.61744 | -46.58621 | 17281 ft | 394 kts | 261° |
| 2026-05-04 01:58 | -23.62186 | -46.61565 | 18102 ft | 393 kts | 259° |
| 2026-05-04 01:59 | -23.62886 | -46.64457 | 18752 ft | 395 kts | 252° |
| 2026-05-04 01:59 | -23.63938 | -46.67238 | 19358 ft | 398 kts | 245° |
| 2026-05-04 01:59 | -23.65308 | -46.69868 | 19986 ft | 399 kts | 240° |
| 2026-05-04 01:59 | -23.66787 | -46.72434 | 20603 ft | 400 kts | 239° |
| 2026-05-04 02:00 | -23.68288 | -46.75003 | 21204 ft | 402 kts | 239° |
| 2026-05-04 02:00 | -23.69968 | -46.77461 | 21844 ft | 405 kts | 232° |
| 2026-05-04 02:00 | -23.71969 | -46.79625 | 22519 ft | 407 kts | 224° |
| 2026-05-04 02:00 | -23.74265 | -46.81477 | 23147 ft | 413 kts | 217° |
| 2026-05-04 02:01 | -23.76736 | -46.83089 | 23735 ft | 416 kts | 215° |
| 2026-05-04 02:01 | -23.79249 | -46.84679 | 24180 ft | 419 kts | 215° |
| 2026-05-04 02:01 | -23.81788 | -46.86274 | 24615 ft | 422 kts | 215° |
| 2026-05-04 02:01 | -23.84343 | -46.87880 | 25042 ft | 425 kts | 216° |
| 2026-05-04 02:02 | -23.86617 | -46.89313 | 25432 ft | 427 kts | 216° |
| 2026-05-04 02:02 | -23.86902 | -46.89492 | 25479 ft | 428 kts | 216° |
| 2026-05-04 02:02 | -23.89542 | -46.91158 | 25917 ft | 431 kts | 216° |
| 2026-05-04 02:02 | -23.90676 | -46.91875 | 26101 ft | 432 kts | 216° |
| 2026-05-04 02:03 | -23.92011 | -46.92719 | 26322 ft | 434 kts | 216° |
| 2026-05-04 02:03 | -23.92405 | -46.92968 | 26388 ft | 434 kts | 216° |
| 2026-05-04 02:03 | -23.95032 | -46.94629 | 26810 ft | 437 kts | 216° |
| 2026-05-04 02:03 | -23.97673 | -46.96301 | 27258 ft | 440 kts | 216° |
| 2026-05-04 02:04 | -24.00321 | -46.97979 | 27683 ft | 443 kts | 217° |
| 2026-05-04 02:04 | -24.03000 | -46.99676 | 28124 ft | 446 kts | 217° |
| 2026-05-04 02:04 | -24.05695 | -47.01385 | 28554 ft | 449 kts | 217° |
| 2026-05-04 02:04 | -24.08405 | -47.03105 | 28992 ft | 451 kts | 217° |
| 2026-05-04 02:05 | -24.11117 | -47.04824 | 29611 ft | 449 kts | 217° |
| 2026-05-04 02:05 | -24.13815 | -47.06534 | 30269 ft | 447 kts | 218° |
| 2026-05-04 02:05 | -24.16492 | -47.08236 | 30846 ft | 444 kts | 218° |
| 2026-05-04 02:05 | -24.19162 | -47.09937 | 31400 ft | 443 kts | 218° |
| 2026-05-04 02:06 | -24.21821 | -47.11632 | 31928 ft | 441 kts | 218° |
| 2026-05-04 02:06 | -24.24464 | -47.13315 | 32484 ft | 439 kts | 218° |
| 2026-05-04 02:06 | -24.26516 | -47.14650 | 32914 ft | 436 kts | 220° |
| 2026-05-04 02:06 | -24.27965 | -47.15640 | 33220 ft | 435 kts | 220° |
| 2026-05-04 02:07 | -24.30371 | -47.17303 | 33678 ft | 433 kts | 220° |
| 2026-05-04 02:07 | -24.32915 | -47.19067 | 34203 ft | 432 kts | 221° |
| 2026-05-04 02:07 | -24.35449 | -47.20827 | 34675 ft | 429 kts | 220° |
| 2026-05-04 02:07 | -24.37384 | -47.22173 | 34982 ft | 429 kts | 220° |
| 2026-05-04 02:08 | -24.39833 | -47.23878 | 35351 ft | 429 kts | 220° |
| 2026-05-04 02:08 | -24.42357 | -47.25636 | 35714 ft | 431 kts | 220° |
| 2026-05-04 02:08 | -24.44891 | -47.27400 | 36028 ft | 432 kts | 220° |
| 2026-05-04 02:08 | -24.47429 | -47.29169 | 36206 ft | 433 kts | 220° |
| 2026-05-04 02:09 | -24.52524 | -47.32718 | 36220 ft | 433 kts | 220° |
| 2026-05-04 02:09 | -24.57610 | -47.36264 | 36208 ft | 433 kts | 220° |
| 2026-05-04 02:10 | -24.62690 | -47.39809 | 36219 ft | 432 kts | 220° |
| 2026-05-04 02:10 | -24.67764 | -47.43353 | 36205 ft | 432 kts | 220° |
| 2026-05-04 02:11 | -24.72832 | -47.46897 | 36200 ft | 431 kts | 220° |
| 2026-05-04 02:11 | -24.77899 | -47.50443 | 36200 ft | 431 kts | 220° |
| 2026-05-04 02:12 | -24.82963 | -47.53992 | 36213 ft | 431 kts | 220° |
| 2026-05-04 02:12 | -24.88021 | -47.57539 | 36205 ft | 431 kts | 220° |
| 2026-05-04 02:13 | -24.92224 | -47.60490 | 36211 ft | 430 kts | 220° |
| 2026-05-04 02:13 | -24.98103 | -47.64621 | 36195 ft | 430 kts | 220° |
| 2026-05-04 02:14 | -25.02324 | -47.67590 | 36207 ft | 430 kts | 220° |
| 2026-05-04 02:14 | -25.08182 | -47.71714 | 36206 ft | 430 kts | 220° |
| 2026-05-04 02:15 | -25.12405 | -47.74691 | 36230 ft | 429 kts | 220° |
| 2026-05-04 02:15 | -25.17396 | -47.78212 | 36211 ft | 428 kts | 220° |
| 2026-05-04 02:16 | -25.22414 | -47.81758 | 36209 ft | 428 kts | 220° |
| 2026-05-04 02:16 | -25.27443 | -47.85314 | 36207 ft | 429 kts | 220° |
| 2026-05-04 02:17 | -25.32471 | -47.88871 | 36208 ft | 429 kts | 220° |
| 2026-05-04 02:17 | -25.37496 | -47.92429 | 36207 ft | 429 kts | 220° |
| 2026-05-04 02:18 | -25.42520 | -47.95992 | 36224 ft | 429 kts | 220° |
| 2026-05-04 02:18 | -25.47546 | -47.99562 | 36215 ft | 429 kts | 220° |
| 2026-05-04 02:19 | -25.52577 | -48.03140 | 36211 ft | 430 kts | 220° |
| 2026-05-04 02:19 | -25.57624 | -48.06732 | 36210 ft | 430 kts | 220° |
| 2026-05-04 02:20 | -25.62660 | -48.10320 | 36210 ft | 430 kts | 220° |
| 2026-05-04 02:20 | -25.67699 | -48.13901 | 36208 ft | 430 kts | 220° |
| 2026-05-04 02:21 | -25.72762 | -48.17501 | 36208 ft | 430 kts | 220° |
| 2026-05-04 02:21 | -25.77803 | -48.21095 | 36217 ft | 432 kts | 220° |
| 2026-05-04 02:22 | -25.82825 | -48.24676 | 36207 ft | 432 kts | 220° |
| 2026-05-04 02:22 | -25.87920 | -48.28312 | 36209 ft | 432 kts | 220° |
| 2026-05-04 02:23 | -25.92937 | -48.31896 | 36223 ft | 432 kts | 220° |
| 2026-05-04 02:23 | -25.97999 | -48.35518 | 36210 ft | 432 kts | 220° |
| 2026-05-04 02:24 | -26.03049 | -48.39136 | 36210 ft | 432 kts | 220° |
| 2026-05-04 02:24 | -26.08106 | -48.42764 | 36221 ft | 433 kts | 220° |
| 2026-05-04 02:25 | -26.13168 | -48.46396 | 36216 ft | 433 kts | 220° |
| 2026-05-04 02:25 | -26.18230 | -48.50034 | 36212 ft | 433 kts | 220° |
| 2026-05-04 02:26 | -26.23291 | -48.53675 | 36211 ft | 433 kts | 220° |
| 2026-05-04 02:26 | -26.28348 | -48.57317 | 36211 ft | 433 kts | 220° |
| 2026-05-04 02:27 | -26.33402 | -48.60960 | 36211 ft | 433 kts | 220° |
| 2026-05-04 02:27 | -26.38464 | -48.64618 | 36218 ft | 434 kts | 220° |
| 2026-05-04 02:28 | -26.43539 | -48.68287 | 36219 ft | 434 kts | 220° |
| 2026-05-04 02:28 | -26.48607 | -48.71965 | 36168 ft | 434 kts | 220° |
| 2026-05-04 02:29 | -26.53652 | -48.75684 | 36222 ft | 434 kts | 220° |
| 2026-05-04 02:29 | -26.58693 | -48.79406 | 36216 ft | 434 kts | 220° |
| 2026-05-04 02:30 | -26.63763 | -48.83152 | 36220 ft | 434 kts | 220° |
| 2026-05-04 02:30 | -26.68811 | -48.86869 | 36224 ft | 435 kts | 220° |
| 2026-05-04 02:31 | -26.73883 | -48.90566 | 36221 ft | 436 kts | 220° |
| 2026-05-04 02:31 | -26.78970 | -48.94276 | 36220 ft | 436 kts | 220° |
| 2026-05-04 02:32 | -26.84042 | -48.97984 | 36219 ft | 435 kts | 220° |
| 2026-05-04 02:32 | -26.89135 | -49.01712 | 36219 ft | 436 kts | 220° |
| 2026-05-04 02:33 | -26.94211 | -49.05434 | 36217 ft | 436 kts | 220° |
| 2026-05-04 02:33 | -26.99252 | -49.09134 | 36228 ft | 436 kts | 220° |
| 2026-05-04 02:34 | -27.04324 | -49.12861 | 36225 ft | 436 kts | 220° |
| 2026-05-04 02:34 | -27.09400 | -49.16595 | 36224 ft | 436 kts | 220° |
| 2026-05-04 02:35 | -27.14473 | -49.20332 | 36225 ft | 436 kts | 220° |
| 2026-05-04 02:35 | -27.19536 | -49.24066 | 36233 ft | 435 kts | 220° |
| 2026-05-04 02:36 | -27.24609 | -49.27811 | 36236 ft | 436 kts | 220° |
| 2026-05-04 02:36 | -27.29684 | -49.31563 | 36255 ft | 437 kts | 220° |
| 2026-05-04 02:37 | -27.34764 | -49.35321 | 36244 ft | 437 kts | 220° |
| 2026-05-04 02:37 | -27.39843 | -49.39080 | 36241 ft | 437 kts | 220° |
| 2026-05-04 02:38 | -27.44926 | -49.42850 | 36247 ft | 437 kts | 220° |
| 2026-05-04 02:38 | -27.50005 | -49.46621 | 36249 ft | 437 kts | 220° |
| 2026-05-04 02:39 | -27.55003 | -49.50517 | 36253 ft | 435 kts | 224° |
| 2026-05-04 02:39 | -27.59637 | -49.54858 | 36258 ft | 431 kts | 227° |
| 2026-05-04 02:40 | -27.64127 | -49.59351 | 36248 ft | 431 kts | 227° |
| 2026-05-04 02:40 | -27.68614 | -49.63858 | 36246 ft | 431 kts | 227° |
| 2026-05-04 02:41 | -27.73094 | -49.68362 | 36241 ft | 431 kts | 227° |
| 2026-05-04 02:41 | -27.77575 | -49.72873 | 36241 ft | 431 kts | 227° |
| 2026-05-04 02:42 | -27.82053 | -49.77387 | 36243 ft | 431 kts | 227° |
| 2026-05-04 02:42 | -27.86530 | -49.81903 | 36234 ft | 431 kts | 227° |
| 2026-05-04 02:43 | -27.91003 | -49.86421 | 36239 ft | 431 kts | 227° |
| 2026-05-04 02:43 | -27.95474 | -49.90946 | 36247 ft | 432 kts | 227° |
| 2026-05-04 02:44 | -27.99962 | -49.95491 | 36240 ft | 433 kts | 227° |
| 2026-05-04 02:44 | -28.04457 | -50.00048 | 36229 ft | 433 kts | 227° |
| 2026-05-04 02:45 | -28.08945 | -50.04601 | 36226 ft | 433 kts | 227° |
| 2026-05-04 02:45 | -28.13431 | -50.09159 | 36221 ft | 433 kts | 227° |
| 2026-05-04 02:46 | -28.17886 | -50.13690 | 36215 ft | 433 kts | 227° |
| 2026-05-04 02:46 | -28.22396 | -50.18283 | 36215 ft | 433 kts | 227° |
| 2026-05-04 02:47 | -28.26849 | -50.22826 | 36214 ft | 433 kts | 227° |
| 2026-05-04 02:47 | -28.31359 | -50.27430 | 36223 ft | 433 kts | 227° |
| 2026-05-04 02:48 | -28.35823 | -50.31994 | 36217 ft | 433 kts | 227° |
| 2026-05-04 02:48 | -28.40335 | -50.36607 | 36211 ft | 434 kts | 227° |
| 2026-05-04 02:49 | -28.44791 | -50.41172 | 36215 ft | 434 kts | 227° |
| 2026-05-04 02:49 | -28.49280 | -50.45778 | 36209 ft | 434 kts | 227° |
| 2026-05-04 02:50 | -28.53760 | -50.50377 | 36213 ft | 433 kts | 227° |
| 2026-05-04 02:50 | -28.58236 | -50.54978 | 36213 ft | 433 kts | 227° |
| 2026-05-04 02:51 | -28.62709 | -50.59583 | 36212 ft | 433 kts | 227° |
| 2026-05-04 02:51 | -28.67182 | -50.64196 | 36216 ft | 434 kts | 226° |
| 2026-05-04 02:52 | -28.71652 | -50.68810 | 36214 ft | 433 kts | 226° |
| 2026-05-04 02:52 | -28.76128 | -50.73431 | 36212 ft | 434 kts | 226° |
| 2026-05-04 02:53 | -28.80602 | -50.78059 | 36220 ft | 434 kts | 226° |
| 2026-05-04 02:53 | -28.85068 | -50.82683 | 36214 ft | 433 kts | 226° |
| 2026-05-04 02:54 | -28.89528 | -50.87307 | 36208 ft | 433 kts | 226° |
| 2026-05-04 02:54 | -28.93983 | -50.91936 | 36205 ft | 432 kts | 226° |
| 2026-05-04 02:55 | -29.00658 | -50.98875 | 36226 ft | 432 kts | 226° |
| 2026-05-04 02:56 | -29.05111 | -51.03513 | 36206 ft | 433 kts | 226° |
| 2026-05-04 02:56 | -29.09564 | -51.08154 | 36195 ft | 433 kts | 226° |
| 2026-05-04 02:57 | -29.13978 | -51.12764 | 36195 ft | 433 kts | 226° |
| 2026-05-04 02:57 | -29.18423 | -51.17410 | 36189 ft | 433 kts | 226° |
| 2026-05-04 02:58 | -29.23005 | -51.21901 | 36184 ft | 434 kts | 224° |
| 2026-05-04 02:58 | -29.27650 | -51.26316 | 36179 ft | 434 kts | 223° |
| 2026-05-04 02:59 | -29.32296 | -51.30737 | 36185 ft | 434 kts | 224° |
| 2026-05-04 02:59 | -29.36940 | -51.35169 | 36181 ft | 434 kts | 223° |
| 2026-05-04 03:00 | -29.41575 | -51.39597 | 36176 ft | 432 kts | 223° |
| 2026-05-04 03:00 | -29.46204 | -51.44016 | 36170 ft | 433 kts | 223° |
| 2026-05-04 03:01 | -29.50833 | -51.48446 | 36164 ft | 433 kts | 223° |
| 2026-05-04 03:01 | -29.55460 | -51.52881 | 36160 ft | 433 kts | 223° |
| 2026-05-04 03:02 | -29.59308 | -51.56573 | 36159 ft | 433 kts | 223° |
| 2026-05-04 03:02 | -29.63924 | -51.61012 | 36156 ft | 432 kts | 223° |
| 2026-05-04 03:03 | -29.68527 | -51.65438 | 36172 ft | 432 kts | 223° |
| 2026-05-04 03:03 | -29.73134 | -51.69875 | 36159 ft | 432 kts | 223° |
| 2026-05-04 03:04 | -29.77745 | -51.74318 | 36154 ft | 432 kts | 223° |
| 2026-05-04 03:04 | -29.82351 | -51.78764 | 36154 ft | 432 kts | 223° |
| 2026-05-04 03:05 | -29.86950 | -51.83211 | 36152 ft | 431 kts | 223° |
| 2026-05-04 03:05 | -29.91544 | -51.87657 | 36156 ft | 430 kts | 223° |
| 2026-05-04 03:06 | -29.96133 | -51.92102 | 36154 ft | 430 kts | 223° |
| 2026-05-04 03:06 | -30.00711 | -51.96543 | 36153 ft | 430 kts | 223° |
| 2026-05-04 03:07 | -30.05309 | -52.01013 | 36163 ft | 430 kts | 222° |
| 2026-05-04 03:07 | -30.09892 | -52.05470 | 36160 ft | 430 kts | 222° |
| 2026-05-04 03:08 | -30.14463 | -52.09921 | 36158 ft | 429 kts | 222° |
| 2026-05-04 03:08 | -30.19027 | -52.14371 | 36162 ft | 429 kts | 222° |
| 2026-05-04 03:09 | -30.23593 | -52.18828 | 36157 ft | 429 kts | 222° |
| 2026-05-04 03:09 | -30.28139 | -52.23271 | 36155 ft | 429 kts | 222° |
| 2026-05-04 03:10 | -30.32702 | -52.27737 | 36160 ft | 429 kts | 222° |
| 2026-05-04 03:10 | -30.37266 | -52.32209 | 36158 ft | 428 kts | 222° |
| 2026-05-04 03:11 | -30.41813 | -52.36670 | 36162 ft | 428 kts | 223° |
| 2026-05-04 03:11 | -30.46359 | -52.41137 | 36162 ft | 428 kts | 223° |
| 2026-05-04 03:12 | -30.50898 | -52.45602 | 36162 ft | 428 kts | 223° |
| 2026-05-04 03:12 | -30.55438 | -52.50074 | 36163 ft | 428 kts | 223° |
| 2026-05-04 03:13 | -30.59975 | -52.54549 | 36161 ft | 427 kts | 223° |
| 2026-05-04 03:13 | -30.64497 | -52.59015 | 36159 ft | 426 kts | 223° |
| 2026-05-04 03:14 | -30.69021 | -52.63488 | 36179 ft | 427 kts | 223° |
| 2026-05-04 03:14 | -30.73539 | -52.67961 | 36164 ft | 426 kts | 223° |
| 2026-05-04 03:15 | -30.78055 | -52.72437 | 36158 ft | 426 kts | 223° |
| 2026-05-04 03:15 | -30.82569 | -52.76918 | 36153 ft | 426 kts | 223° |
| 2026-05-04 03:16 | -30.87072 | -52.81393 | 36158 ft | 425 kts | 223° |
| 2026-05-04 03:16 | -30.91571 | -52.85869 | 36159 ft | 425 kts | 223° |
| 2026-05-04 03:17 | -30.96071 | -52.90354 | 36157 ft | 425 kts | 223° |
| 2026-05-04 03:17 | -31.00565 | -52.94837 | 36158 ft | 425 kts | 223° |
| 2026-05-04 03:18 | -31.05059 | -52.99327 | 36170 ft | 425 kts | 223° |
| 2026-05-04 03:18 | -31.09557 | -53.03827 | 36161 ft | 424 kts | 223° |
| 2026-05-04 03:19 | -31.14042 | -53.08318 | 36156 ft | 424 kts | 223° |
| 2026-05-04 03:19 | -31.18523 | -53.12812 | 36156 ft | 424 kts | 223° |
| 2026-05-04 03:20 | -31.23001 | -53.17308 | 36155 ft | 424 kts | 223° |
| 2026-05-04 03:20 | -31.27480 | -53.21812 | 36156 ft | 424 kts | 223° |
| 2026-05-04 03:21 | -31.31957 | -53.26319 | 36154 ft | 424 kts | 223° |
| 2026-05-04 03:21 | -31.36427 | -53.30826 | 36169 ft | 423 kts | 223° |
| 2026-05-04 03:22 | -31.40892 | -53.35332 | 36157 ft | 423 kts | 223° |
| 2026-05-04 03:22 | -31.45341 | -53.39829 | 36155 ft | 423 kts | 223° |
| 2026-05-04 03:23 | -31.49801 | -53.44343 | 36150 ft | 423 kts | 223° |
| 2026-05-04 03:23 | -31.54271 | -53.48873 | 36147 ft | 423 kts | 223° |
| 2026-05-04 03:24 | -31.58730 | -53.53398 | 36148 ft | 423 kts | 223° |
| 2026-05-04 03:24 | -31.63187 | -53.57927 | 36147 ft | 423 kts | 223° |
| 2026-05-04 03:25 | -31.67607 | -53.62423 | 36142 ft | 423 kts | 223° |
| 2026-05-04 03:25 | -31.72057 | -53.66956 | 36141 ft | 423 kts | 223° |
| 2026-05-04 03:26 | -31.76504 | -53.71494 | 36142 ft | 423 kts | 223° |
| 2026-05-04 03:26 | -31.80946 | -53.76031 | 36138 ft | 423 kts | 223° |
| 2026-05-04 03:27 | -31.85385 | -53.80573 | 36140 ft | 422 kts | 223° |
| 2026-05-04 03:27 | -31.89817 | -53.85115 | 36138 ft | 422 kts | 223° |
| 2026-05-04 03:28 | -31.94260 | -53.89650 | 36133 ft | 422 kts | 222° |
| 2026-05-04 03:28 | -31.98953 | -53.93840 | 36148 ft | 424 kts | 217° |
| 2026-05-04 03:29 | -32.03825 | -53.97756 | 36144 ft | 424 kts | 217° |
| 2026-05-04 03:29 | -32.08722 | -54.01672 | 36139 ft | 424 kts | 217° |
| 2026-05-04 03:30 | -32.13608 | -54.05587 | 36128 ft | 424 kts | 217° |
| 2026-05-04 03:30 | -32.18488 | -54.09503 | 36126 ft | 424 kts | 217° |
| 2026-05-04 03:31 | -32.23371 | -54.13427 | 36120 ft | 424 kts | 217° |
| 2026-05-04 03:31 | -32.28248 | -54.17351 | 36117 ft | 424 kts | 217° |
| 2026-05-04 03:32 | -32.33131 | -54.21277 | 36136 ft | 424 kts | 217° |
| 2026-05-04 03:32 | -32.38167 | -54.24931 | 36136 ft | 425 kts | 214° |
| 2026-05-04 03:33 | -32.43227 | -54.28478 | 36137 ft | 425 kts | 214° |
| 2026-05-04 03:33 | -32.48320 | -54.32053 | 36137 ft | 425 kts | 214° |
| 2026-05-04 03:34 | -32.53416 | -54.35637 | 36134 ft | 425 kts | 214° |
| 2026-05-04 03:34 | -32.58505 | -54.39220 | 36135 ft | 426 kts | 214° |
| 2026-05-04 03:35 | -32.63619 | -54.42826 | 36141 ft | 425 kts | 214° |
| 2026-05-04 03:35 | -32.68708 | -54.46421 | 36137 ft | 425 kts | 214° |
| 2026-05-04 03:36 | -32.73817 | -54.50034 | 36131 ft | 426 kts | 215° |
| 2026-05-04 03:36 | -32.78907 | -54.53636 | 36132 ft | 426 kts | 215° |
| 2026-05-04 03:37 | -32.83999 | -54.57249 | 36128 ft | 426 kts | 215° |
| 2026-05-04 03:37 | -32.89084 | -54.60861 | 36130 ft | 426 kts | 215° |
| 2026-05-04 03:38 | -32.94176 | -54.64480 | 36128 ft | 426 kts | 215° |
| 2026-05-04 03:38 | -32.99262 | -54.68102 | 36131 ft | 426 kts | 215° |
| 2026-05-04 03:39 | -33.04355 | -54.71735 | 35808 ft | 426 kts | 215° |
| 2026-05-04 03:39 | -33.06890 | -54.73543 | 35555 ft | 424 kts | 215° |
| 2026-05-04 03:39 | -33.09419 | -54.75349 | 35301 ft | 422 kts | 215° |
| 2026-05-04 03:39 | -33.11936 | -54.77146 | 35069 ft | 421 kts | 216° |
| 2026-05-04 03:40 | -33.14449 | -54.78944 | 34828 ft | 421 kts | 216° |
| 2026-05-04 03:40 | -33.16966 | -54.80746 | 34586 ft | 422 kts | 216° |
| 2026-05-04 03:40 | -33.19486 | -54.82552 | 34373 ft | 424 kts | 216° |
| 2026-05-04 03:40 | -33.22016 | -54.84366 | 34136 ft | 425 kts | 216° |
| 2026-05-04 03:41 | -33.24561 | -54.86192 | 33862 ft | 426 kts | 216° |
| 2026-05-04 03:41 | -33.27107 | -54.88019 | 33588 ft | 428 kts | 216° |
| 2026-05-04 03:41 | -33.29658 | -54.89852 | 33328 ft | 429 kts | 216° |
| 2026-05-04 03:41 | -33.32223 | -54.91696 | 33060 ft | 430 kts | 216° |
| 2026-05-04 03:42 | -33.34790 | -54.93542 | 32802 ft | 431 kts | 216° |
| 2026-05-04 03:42 | -33.37363 | -54.95394 | 32541 ft | 432 kts | 216° |
| 2026-05-04 03:42 | -33.39945 | -54.97254 | 32288 ft | 434 kts | 216° |
| 2026-05-04 03:42 | -33.42535 | -54.99121 | 32030 ft | 435 kts | 216° |
| 2026-05-04 03:43 | -33.45134 | -55.00997 | 31770 ft | 436 kts | 216° |
| 2026-05-04 03:43 | -33.47740 | -55.02876 | 31520 ft | 438 kts | 216° |
| 2026-05-04 03:43 | -33.50352 | -55.04763 | 31134 ft | 439 kts | 216° |
| 2026-05-04 03:43 | -33.52979 | -55.06660 | 30611 ft | 441 kts | 216° |
| 2026-05-04 03:44 | -33.55608 | -55.08558 | 29941 ft | 441 kts | 216° |
| 2026-05-04 03:44 | -33.58235 | -55.10455 | 29198 ft | 442 kts | 216° |
| 2026-05-04 03:44 | -33.60870 | -55.12360 | 28492 ft | 441 kts | 216° |
| 2026-05-04 03:44 | -33.63461 | -55.14235 | 27887 ft | 441 kts | 216° |
| 2026-05-04 03:45 | -33.66087 | -55.16137 | 27459 ft | 439 kts | 216° |
| 2026-05-04 03:45 | -33.68715 | -55.18041 | 27011 ft | 436 kts | 216° |
| 2026-05-04 03:45 | -33.71306 | -55.19920 | 26487 ft | 433 kts | 216° |
| 2026-05-04 03:45 | -33.73870 | -55.21780 | 26024 ft | 428 kts | 216° |
| 2026-05-04 03:46 | -33.76418 | -55.23629 | 25578 ft | 423 kts | 216° |
| 2026-05-04 03:46 | -33.78927 | -55.25453 | 25127 ft | 419 kts | 216° |
| 2026-05-04 03:46 | -33.81414 | -55.27263 | 24577 ft | 418 kts | 216° |
| 2026-05-04 03:46 | -33.83906 | -55.29079 | 23954 ft | 418 kts | 216° |
| 2026-05-04 03:47 | -33.86398 | -55.30898 | 23245 ft | 419 kts | 216° |
| 2026-05-04 03:47 | -33.88879 | -55.32711 | 22693 ft | 415 kts | 216° |
| 2026-05-04 03:47 | -33.91334 | -55.34504 | 22223 ft | 410 kts | 216° |
| 2026-05-04 03:47 | -33.93758 | -55.36274 | 21778 ft | 404 kts | 216° |
| 2026-05-04 03:48 | -33.95345 | -55.37433 | 21492 ft | 401 kts | 216° |
| 2026-05-04 03:48 | -33.97717 | -55.39168 | 21055 ft | 397 kts | 216° |
| 2026-05-04 03:48 | -34.00069 | -55.40889 | 20623 ft | 393 kts | 216° |
| 2026-05-04 03:48 | -34.02394 | -55.42592 | 20197 ft | 390 kts | 216° |
| 2026-05-04 03:49 | -34.04700 | -55.44279 | 19782 ft | 387 kts | 216° |
| 2026-05-04 03:49 | -34.06996 | -55.45963 | 19366 ft | 384 kts | 216° |
| 2026-05-04 03:49 | -34.09266 | -55.47630 | 18928 ft | 382 kts | 216° |
| 2026-05-04 03:49 | -34.11531 | -55.49293 | 18515 ft | 379 kts | 215° |
| 2026-05-04 03:50 | -34.13779 | -55.50946 | 18061 ft | 377 kts | 215° |
| 2026-05-04 03:50 | -34.16016 | -55.52590 | 17622 ft | 375 kts | 215° |
| 2026-05-04 03:50 | -34.18235 | -55.54221 | 17200 ft | 372 kts | 215° |
| 2026-05-04 03:50 | -34.20439 | -55.55842 | 16780 ft | 369 kts | 215° |
| 2026-05-04 03:51 | -34.22621 | -55.57450 | 16366 ft | 367 kts | 215° |
| 2026-05-04 03:51 | -34.24796 | -55.59053 | 15964 ft | 365 kts | 215° |
| 2026-05-04 03:51 | -34.26960 | -55.60649 | 15556 ft | 363 kts | 215° |
| 2026-05-04 03:51 | -34.29113 | -55.62239 | 15133 ft | 362 kts | 214° |
| 2026-05-04 03:52 | -34.31257 | -55.63822 | 14737 ft | 360 kts | 215° |
| 2026-05-04 03:52 | -34.33394 | -55.65397 | 14320 ft | 359 kts | 215° |
| 2026-05-04 03:52 | -34.35525 | -55.66972 | 13907 ft | 357 kts | 214° |
| 2026-05-04 03:52 | -34.37641 | -55.68535 | 13473 ft | 355 kts | 214° |
| 2026-05-04 03:53 | -34.39741 | -55.70087 | 13065 ft | 352 kts | 214° |
| 2026-05-04 03:53 | -34.41820 | -55.71626 | 12667 ft | 349 kts | 214° |
| 2026-05-04 03:53 | -34.43887 | -55.73156 | 12283 ft | 347 kts | 214° |
| 2026-05-04 03:53 | -34.45939 | -55.74677 | 11896 ft | 344 kts | 214° |
| 2026-05-04 03:54 | -34.47975 | -55.76186 | 11524 ft | 342 kts | 214° |
| 2026-05-04 03:54 | -34.50002 | -55.77692 | 11136 ft | 340 kts | 214° |
| 2026-05-04 03:54 | -34.52013 | -55.79184 | 10861 ft | 333 kts | 214° |
| 2026-05-04 03:54 | -34.53924 | -55.80601 | 10760 ft | 320 kts | 215° |
| 2026-05-04 03:55 | -34.55639 | -55.82263 | 10499 ft | 302 kts | 231° |
| 2026-05-04 03:55 | -34.56918 | -55.84139 | 10396 ft | 277 kts | 235° |
| 2026-05-04 03:55 | -34.58079 | -55.85958 | 10315 ft | 266 kts | 235° |
| 2026-05-04 03:55 | -34.59194 | -55.87686 | 10233 ft | 261 kts | 234° |
| 2026-05-04 03:56 | -34.60318 | -55.89393 | 10143 ft | 257 kts | 234° |
| 2026-05-04 03:56 | -34.61443 | -55.91075 | 9990 ft | 257 kts | 233° |
| 2026-05-04 03:56 | -34.62576 | -55.92753 | 9658 ft | 257 kts | 233° |
| 2026-05-04 03:56 | -34.63707 | -55.94415 | 9238 ft | 253 kts | 233° |
| 2026-05-04 03:57 | -34.64825 | -55.96052 | 8977 ft | 251 kts | 233° |
| 2026-05-04 03:57 | -34.65937 | -55.97679 | 8693 ft | 250 kts | 233° |
| 2026-05-04 03:57 | -34.67047 | -55.99299 | 8411 ft | 248 kts | 233° |
| 2026-05-04 03:57 | -34.68153 | -56.00914 | 8116 ft | 247 kts | 233° |
| 2026-05-04 03:58 | -34.70352 | -56.04124 | 7705 ft | 243 kts | 233° |
| 2026-05-04 03:58 | -34.71426 | -56.05692 | 7449 ft | 239 kts | 233° |
| 2026-05-04 03:58 | -34.72481 | -56.07232 | 7206 ft | 235 kts | 233° |
| 2026-05-04 03:59 | -34.73521 | -56.08753 | 6976 ft | 232 kts | 233° |
| 2026-05-04 03:59 | -34.74544 | -56.10248 | 6708 ft | 230 kts | 234° |
| 2026-05-04 03:59 | -34.75575 | -56.11756 | 6231 ft | 231 kts | 234° |
| 2026-05-04 03:59 | -34.76594 | -56.13244 | 5806 ft | 226 kts | 234° |
| 2026-05-04 04:00 | -34.77589 | -56.14697 | 5341 ft | 222 kts | 235° |
| 2026-05-04 04:00 | -34.78568 | -56.16128 | 4919 ft | 218 kts | 235° |
| 2026-05-04 04:00 | -34.79541 | -56.17554 | 4452 ft | 217 kts | 236° |
| 2026-05-04 04:00 | -34.80499 | -56.18961 | 3998 ft | 215 kts | 236° |
| 2026-05-04 04:01 | -34.81455 | -56.20363 | 3532 ft | 214 kts | 236° |
| 2026-05-04 04:01 | -34.82391 | -56.21739 | 3113 ft | 213 kts | 237° |
| 2026-05-04 04:01 | -34.83331 | -56.23111 | 2958 ft | 201 kts | 237° |
| 2026-05-04 04:01 | -34.84201 | -56.24368 | 2946 ft | 190 kts | 234° |
| 2026-05-04 04:02 | -34.85282 | -56.25345 | 2970 ft | 200 kts | 212° |
| 2026-05-04 04:02 | -34.86638 | -56.25744 | 2985 ft | 209 kts | 186° |
| 2026-05-04 04:02 | -34.88080 | -56.25418 | 2973 ft | 206 kts | 159° |
| 2026-05-04 04:02 | -34.89245 | -56.24552 | 2952 ft | 196 kts | 144° |
| 2026-05-04 04:03 | -34.90322 | -56.23544 | 2957 ft | 195 kts | 142° |
| 2026-05-04 04:03 | -34.91384 | -56.22526 | 2969 ft | 194 kts | 142° |
| 2026-05-04 04:03 | -34.92452 | -56.21523 | 2961 ft | 194 kts | 141° |
| 2026-05-04 04:03 | -34.93258 | -56.20230 | 2965 ft | 192 kts | 103° |
| 2026-05-04 04:04 | -34.93307 | -56.18676 | 2892 ft | 180 kts | 65° |
| 2026-05-04 04:04 | -34.92724 | -56.17407 | 2745 ft | 169 kts | 45° |
| 2026-05-04 04:04 | -34.92002 | -56.16289 | 2594 ft | 167 kts | 42° |
| 2026-05-04 04:04 | -34.91277 | -56.15186 | 2419 ft | 165 kts | 43° |
| 2026-05-04 04:05 | -34.90579 | -56.14085 | 2216 ft | 163 kts | 43° |
| 2026-05-04 04:05 | -34.89894 | -56.12993 | 2023 ft | 161 kts | 43° |
| 2026-05-04 04:05 | -34.89225 | -56.11904 | 1788 ft | 160 kts | 42° |
| 2026-05-04 04:05 | -34.88565 | -56.10828 | 1531 ft | 155 kts | 43° |
| 2026-05-04 04:06 | -34.87927 | -56.09803 | 1223 ft | 149 kts | 43° |
| 2026-05-04 04:06 | -34.87314 | -56.08793 | 950 ft | 148 kts | 46° |
| 2026-05-04 04:06 | -34.86705 | -56.07787 | 816 ft | 148 kts | 49° |
| 2026-05-04 04:06 | -34.86092 | -56.06775 | 677 ft | 149 kts | 49° |
| 2026-05-04 04:07 | -34.85475 | -56.05757 | 462 ft | 149 kts | 49° |
| 2026-05-04 04:07 | -34.84856 | -56.04744 | 299 ft | 148 kts | 50° |
| 2026-05-04 04:07 | -34.84239 | -56.03737 | 104 ft | 148 kts | 50° |
| 2026-05-04 04:07 | -34.83711 | -56.02877 | 88 ft | 92 kts | 53° |
| 2026-05-04 04:08 | -34.83463 | -56.02466 | 98 ft | 46 kts | 54° |
| 2026-05-04 04:08 | -34.83282 | -56.02169 | 100 ft | 41 kts | 53° |
| 2026-05-04 04:08 | -34.83219 | -56.01984 | 103 ft | 17 kts | 121° |
| 2026-05-04 04:08 | -34.83259 | -56.01932 | 106 ft | 4 kts | 139° |
| 2026-05-04 04:09 | -34.83286 | -56.01906 | 106 ft | 6 kts | 142° |
| 2026-05-04 04:09 | -34.83326 | -56.01868 | 106 ft | 9 kts | 142° |
| 2026-05-04 04:09 | -34.83386 | -56.01815 | 107 ft | 12 kts | 147° |
| 2026-05-04 04:09 | -34.83455 | -56.01750 | 105 ft | 11 kts | 130° |
| 2026-05-04 04:10 | -34.83507 | -56.01686 | 106 ft | 8 kts | 141° |
| 2026-05-04 04:10 | -34.83532 | -56.01664 | 104 ft | 0 kts | 146° |